Time;durP1;ratioP1;P1;durP2;ratioP2;P2;SDS_P1;SDS_P2;PMS_P1;PMS_P2;Temp;Humidity;BMP_temperature;BMP_pressure;BME280_temperature;BME280_humidity;BME280_pressure;Samples;Min_cycle;Max_cycle;Signal;HPM_P1;HPM_P2
2022/04/29 00:00:54;;;;;;;;;;;8.90;96.10;;;;;;5068872;28;19920;-81
2022/04/29 00:03:21;;;;;;;;;;;8.90;95.90;;;;;;5049418;28;20000;-81
2022/04/29 00:05:47;;;;;;;;;;;8.90;95.70;;;;;;5036767;28;19917;-81
2022/04/29 00:08:13;;;;;;;;;;;8.90;95.60;;;;;;5056051;28;19921;-81
2022/04/29 00:10:39;;;;;;;;;;;8.90;95.30;;;;;;5037222;28;19932;-81
2022/04/29 00:13:05;;;;;;;;;;;8.80;94.90;;;;;;5040096;28;19913;-81
2022/04/29 00:15:31;;;;;;;;;;;8.80;95.60;;;;;;5036423;28;20401;-81
2022/04/29 00:17:57;;;;;;;;;;;8.80;96.60;;;;;;5048266;28;19952;-81
2022/04/29 00:20:22;;;;;;;;;;;8.70;96.30;;;;;;5042400;28;19924;-81
2022/04/29 00:22:48;;;;;;;;;;;8.70;97.20;;;;;;5072514;28;19916;-81
2022/04/29 00:25:14;;;;;;;;;;;8.60;98.70;;;;;;5055044;28;19920;-81
2022/04/29 00:27:40;;;;;;;;;;;8.60;97.80;;;;;;5025960;28;19924;-81
2022/04/29 00:30:07;;;;;;;;;;;8.50;98.60;;;;;;5052535;28;19916;-81
2022/04/29 00:32:32;;;;;;;;;;;8.50;99.20;;;;;;5039860;28;20462;-81
2022/04/29 00:34:58;;;;;;;;;;;8.40;99.20;;;;;;5055452;28;19995;-81
2022/04/29 00:37:24;;;;;;;;;;;8.40;98.90;;;;;;5051748;28;19916;-81
2022/04/29 00:39:49;;;;;;;;;;;8.40;99.90;;;;;;5056062;28;19958;-81
2022/04/29 00:42:19;;;;;;;;;;;8.30;99.90;;;;;;5036360;28;19928;-81
2022/04/29 00:44:45;;;;;;;;;;;8.20;99.90;;;;;;5050824;28;19912;-81
2022/04/29 00:47:15;;;;;;;;;;;8.20;99.90;;;;;;5040271;28;19913;-81
2022/04/29 00:49:41;;;;;;;;;;;8.20;99.90;;;;;;5022394;28;19917;-81
2022/04/29 00:52:08;;;;;;;;;;;8.20;99.90;;;;;;5039865;28;19966;-81
2022/04/29 00:54:35;;;;;;;;;;;8.20;99.90;;;;;;5028815;23;20447;-82
2022/04/29 00:57:01;;;;;;;;;;;8.30;99.90;;;;;;5003014;28;20046;-82
2022/04/29 00:59:29;;;;;;;;;;;8.30;99.90;;;;;;4998735;28;19914;-82
2022/04/29 01:01:55;;;;;;;;;;;8.40;99.90;;;;;;4976493;28;19976;-82
2022/04/29 01:04:30;;;;;;;;;;;8.40;99.90;;;;;;5012515;28;19918;-82
2022/04/29 01:06:56;;;;;;;;;;;8.40;99.90;;;;;;5001693;28;20334;-82
2022/04/29 01:09:22;;;;;;;;;;;8.50;99.90;;;;;;5001071;28;19957;-82
2022/04/29 01:11:48;;;;;;;;;;;8.50;99.80;;;;;;4994789;28;20016;-82
2022/04/29 01:14:14;;;;;;;;;;;8.50;99.10;;;;;;4995705;28;20004;-81
2022/04/29 01:16:41;;;;;;;;;;;8.60;98.90;;;;;;4992435;28;19926;-82
2022/04/29 01:19:07;;;;;;;;;;;8.60;98.80;;;;;;4995500;28;19917;-82
2022/04/29 01:21:32;;;;;;;;;;;8.60;98.70;;;;;;5000774;28;19917;-82
2022/04/29 01:23:58;;;;;;;;;;;8.60;98.30;;;;;;4983852;28;19918;-82
2022/04/29 01:26:23;;;;;;;;;;;8.60;98.30;;;;;;4981142;28;19979;-82
2022/04/29 01:28:51;;;;;;;;;;;8.60;98.40;;;;;;4995598;28;19964;-82
2022/04/29 01:31:17;;;;;;;;;;;8.60;98.20;;;;;;4979077;28;19956;-82
2022/04/29 01:33:47;;;;;;;;;;;8.60;98.40;;;;;;4994248;28;19913;-82
2022/04/29 01:36:13;;;;;;;;;;;8.60;98.40;;;;;;5007503;28;19917;-82
2022/04/29 01:38:38;;;;;;;;;;;8.60;98.30;;;;;;4994582;28;19979;-82
2022/04/29 01:41:05;;;;;;;;;;;8.50;98.30;;;;;;5003135;28;19929;-82
2022/04/29 01:43:31;;;;;;;;;;;8.50;98.70;;;;;;4963990;28;19957;-82
2022/04/29 01:45:56;;;;;;;;;;;8.50;99.00;;;;;;4978710;28;20304;-81
2022/04/29 01:48:23;;;;;;;;;;;8.50;99.40;;;;;;5012054;28;19921;-82
2022/04/29 01:50:49;;;;;;;;;;;8.40;99.70;;;;;;5008211;28;19969;-82
2022/04/29 01:53:14;;;;;;;;;;;8.30;99.50;;;;;;5001242;28;20334;-82
2022/04/29 01:55:40;;;;;;;;;;;8.20;99.70;;;;;;5011695;28;19921;-82
2022/04/29 01:58:06;;;;;;;;;;;8.20;99.90;;;;;;5014232;28;20388;-82
2022/04/29 02:00:31;;;;;;;;;;;8.10;99.90;;;;;;5010260;28;20280;-82
2022/04/29 02:02:57;;;;;;;;;;;8.10;99.90;;;;;;5000900;28;19914;-82
2022/04/29 02:05:22;;;;;;;;;;;8.00;99.90;;;;;;5006672;28;20446;-82
2022/04/29 02:07:48;;;;;;;;;;;7.90;99.90;;;;;;5020288;28;19913;-82
2022/04/29 02:10:14;;;;;;;;;;;7.90;99.90;;;;;;5002052;28;20008;-82
2022/04/29 02:12:39;;;;;;;;;;;7.90;99.90;;;;;;4986456;28;19914;-82
2022/04/29 02:15:05;;;;;;;;;;;7.80;99.90;;;;;;4992560;28;20015;-82
2022/04/29 02:17:30;;;;;;;;;;;7.80;99.90;;;;;;4991600;28;19925;-82
2022/04/29 02:19:56;;;;;;;;;;;7.80;99.90;;;;;;5004888;28;19950;-82
2022/04/29 02:22:21;;;;;;;;;;;7.80;99.90;;;;;;4989080;28;20418;-82
2022/04/29 02:24:47;;;;;;;;;;;7.70;99.90;;;;;;5034788;28;19914;-82
2022/04/29 02:27:12;;;;;;;;;;;7.70;99.90;;;;;;4988420;28;19917;-82
2022/04/29 02:29:38;;;;;;;;;;;7.70;99.90;;;;;;4990923;28;19932;-82
2022/04/29 02:32:04;;;;;;;;;;;7.70;99.90;;;;;;4984817;28;19932;-82
2022/04/29 02:34:29;;;;;;;;;;;7.60;99.90;;;;;;5002937;28;19961;-82
2022/04/29 02:36:55;;;;;;;;;;;7.70;99.90;;;;;;4989424;28;19936;-82
2022/04/29 02:39:21;;;;;;;;;;;7.60;99.90;;;;;;4991386;28;19917;-82
2022/04/29 02:41:46;;;;;;;;;;;7.60;99.90;;;;;;4979779;28;19933;-82
2022/04/29 02:44:12;;;;;;;;;;;7.60;99.90;;;;;;5002825;28;20323;-82
2022/04/29 02:47:06;;;;;;;;;;;7.50;99.90;;;;;;5002960;28;19917;-82
2022/04/29 02:49:23;;;;;;;;;;;7.50;99.90;;;;;;5008844;28;20298;-83
2022/04/29 02:51:49;;;;;;;;;;;7.40;99.90;;;;;;5008431;28;19944;-82
2022/04/29 02:54:15;;;;;;;;;;;7.40;99.90;;;;;;5004717;28;19913;-82
2022/04/29 02:56:41;;;;;;;;;;;7.40;99.90;;;;;;5007119;28;19914;-82
2022/04/29 02:59:06;;;;;;;;;;;7.40;99.90;;;;;;5005054;28;19913;-82
2022/04/29 03:01:33;;;;;;;;;;;7.40;99.90;;;;;;5002069;28;19998;-82
2022/04/29 03:03:59;;;;;;;;;;;7.30;99.90;;;;;;5005664;28;20423;-82
2022/04/29 03:06:25;;;;;;;;;;;7.30;99.90;;;;;;4985140;28;19975;-81
2022/04/29 03:08:50;;;;;;;;;;;7.30;99.90;;;;;;4987982;28;19921;-82
2022/04/29 03:11:16;;;;;;;;;;;7.30;99.90;;;;;;4987824;28;19922;-83
2022/04/29 03:13:42;;;;;;;;;;;7.20;99.90;;;;;;4987978;28;19945;-83
2022/04/29 03:16:07;;;;;;;;;;;7.20;99.90;;;;;;4996108;28;20432;-82
2022/04/29 03:18:33;;;;;;;;;;;7.20;99.90;;;;;;4986019;28;19925;-83
2022/04/29 03:20:58;;;;;;;;;;;7.20;99.90;;;;;;5015370;28;20295;-83
2022/04/29 03:23:24;;;;;;;;;;;7.20;99.90;;;;;;5016731;28;19924;-83
2022/04/29 03:25:49;;;;;;;;;;;7.10;99.90;;;;;;5007537;28;19917;-83
2022/04/29 03:28:15;;;;;;;;;;;7.10;99.90;;;;;;5003803;28;19921;-83
2022/04/29 03:30:41;;;;;;;;;;;7.10;99.90;;;;;;4995812;28;19914;-83
2022/04/29 03:33:07;;;;;;;;;;;7.00;99.90;;;;;;5005887;28;20154;-83
2022/04/29 03:35:46;;;;;;;;;;;7.00;99.90;;;;;;5002098;28;19917;-83
2022/04/29 03:38:11;;;;;;;;;;;7.00;99.90;;;;;;5013317;28;19942;-84
2022/04/29 03:40:37;;;;;;;;;;;6.90;99.90;;;;;;4990740;28;20340;-85
2022/04/29 03:43:02;;;;;;;;;;;6.90;99.90;;;;;;4995764;28;19928;-85
2022/04/29 03:45:28;;;;;;;;;;;6.90;99.90;;;;;;5004283;28;19930;-85
2022/04/29 03:47:54;;;;;;;;;;;6.90;99.90;;;;;;5028381;28;19913;-84
2022/04/29 03:50:23;;;;;;;;;;;7.00;99.90;;;;;;5000383;28;19918;-84
2022/04/29 03:52:50;;;;;;;;;;;7.00;99.90;;;;;;5003428;28;19937;-84
2022/04/29 03:55:18;;;;;;;;;;;6.90;99.90;;;;;;4998003;28;20364;-84
2022/04/29 03:57:43;;;;;;;;;;;7.00;99.90;;;;;;5004902;28;19913;-84
2022/04/29 04:00:09;;;;;;;;;;;7.00;99.90;;;;;;5000269;28;19928;-84
2022/04/29 04:02:35;;;;;;;;;;;7.00;99.90;;;;;;4982881;28;19940;-84
2022/04/29 04:05:01;;;;;;;;;;;7.00;99.90;;;;;;5016128;28;20011;-84
2022/04/29 04:07:26;;;;;;;;;;;7.00;99.90;;;;;;5015962;28;19917;-84
2022/04/29 04:09:51;;;;;;;;;;;7.00;99.90;;;;;;5000742;28;20134;-84
2022/04/29 04:12:17;;;;;;;;;;;6.90;99.90;;;;;;5000974;28;19920;-84
2022/04/29 04:14:43;;;;;;;;;;;6.90;99.90;;;;;;4998674;28;20343;-84
2022/04/29 04:17:08;;;;;;;;;;;6.90;99.90;;;;;;4990880;28;19975;-84
2022/04/29 04:19:35;;;;;;;;;;;6.80;99.90;;;;;;5001860;28;19913;-83
2022/04/29 04:22:01;;;;;;;;;;;6.80;99.90;;;;;;5009381;28;19917;-84
2022/04/29 04:24:26;;;;;;;;;;;6.80;99.90;;;;;;4982799;28;19921;-84
2022/04/29 04:26:52;;;;;;;;;;;6.70;99.90;;;;;;4989745;28;20388;-84
2022/04/29 04:29:17;;;;;;;;;;;6.80;99.90;;;;;;4990514;28;20127;-84
2022/04/29 04:31:43;;;;;;;;;;;6.70;99.90;;;;;;4999960;28;19945;-84
2022/04/29 04:36:53;;;;;;;;;;;6.70;99.90;;;;;;5003127;28;19929;-84
2022/04/29 04:39:18;;;;;;;;;;;6.70;99.90;;;;;;4983134;28;19921;-83
2022/04/29 04:41:44;;;;;;;;;;;6.80;99.90;;;;;;4983091;28;20280;-84
2022/04/29 04:44:09;;;;;;;;;;;6.80;99.90;;;;;;4984016;28;20384;-83
2022/04/29 04:46:36;;;;;;;;;;;6.80;99.90;;;;;;5006104;28;19910;-84
2022/04/29 04:49:01;;;;;;;;;;;6.90;99.90;;;;;;4994401;28;19918;-84
2022/04/29 04:51:27;;;;;;;;;;;6.90;99.90;;;;;;5001548;28;19913;-84
2022/04/29 04:53:52;;;;;;;;;;;6.90;99.90;;;;;;4998904;28;19917;-84
2022/04/29 04:56:18;;;;;;;;;;;7.00;99.90;;;;;;5009868;28;19925;-84
2022/04/29 04:58:43;;;;;;;;;;;7.00;99.90;;;;;;5024202;28;20390;-84
2022/04/29 05:01:09;;;;;;;;;;;7.00;99.90;;;;;;5001759;28;19918;-84
2022/04/29 05:03:34;;;;;;;;;;;7.00;99.90;;;;;;5021164;28;20007;-84
2022/04/29 05:06:00;;;;;;;;;;;7.10;99.90;;;;;;5008037;28;19921;-85
2022/04/29 05:08:25;;;;;;;;;;;7.10;99.90;;;;;;5028429;28;19917;-84
2022/04/29 05:10:51;;;;;;;;;;;7.20;99.90;;;;;;5011019;28;19917;-84
2022/04/29 05:13:16;;;;;;;;;;;7.20;99.90;;;;;;5020370;28;19939;-84
2022/04/29 05:15:42;;;;;;;;;;;7.20;99.90;;;;;;5031255;28;19913;-84
2022/04/29 05:18:08;;;;;;;;;;;7.20;99.90;;;;;;5025518;28;19925;-84
2022/04/29 05:20:34;;;;;;;;;;;7.30;99.90;;;;;;5026705;28;19913;-84
2022/04/29 05:23:00;;;;;;;;;;;7.40;99.90;;;;;;5016952;28;20054;-84
2022/04/29 05:25:25;;;;;;;;;;;7.40;99.90;;;;;;5034320;28;20554;-84
2022/04/29 05:27:51;;;;;;;;;;;7.50;99.90;;;;;;5016967;28;19916;-84
2022/04/29 05:30:16;;;;;;;;;;;7.50;99.90;;;;;;4999607;28;19917;-84
2022/04/29 05:32:42;;;;;;;;;;;7.60;99.90;;;;;;5007427;28;20355;-84
2022/04/29 05:35:09;;;;;;;;;;;7.60;99.90;;;;;;5011274;28;19964;-84
2022/04/29 05:37:35;;;;;;;;;;;7.70;99.90;;;;;;5014191;28;19992;-84
2022/04/29 05:42:45;;;;;;;;;;;7.80;99.90;;;;;;5037996;28;20010;-84
2022/04/29 05:45:10;;;;;;;;;;;7.90;99.90;;;;;;5030467;28;19952;-84
2022/04/29 05:47:36;;;;;;;;;;;8.00;99.90;;;;;;5019959;28;19920;-84
2022/04/29 05:50:03;;;;;;;;;;;8.10;99.90;;;;;;5004069;28;20338;-83
2022/04/29 05:52:28;;;;;;;;;;;8.10;99.90;;;;;;5021221;28;20311;-84
2022/04/29 05:54:54;;;;;;;;;;;8.30;99.90;;;;;;5018266;28;19924;-84
2022/04/29 05:57:19;;;;;;;;;;;8.40;99.90;;;;;;5015249;28;19948;-83
2022/04/29 05:59:45;;;;;;;;;;;8.60;99.90;;;;;;4997408;28;19924;-85
2022/04/29 06:02:10;;;;;;;;;;;8.80;99.90;;;;;;5007642;28;19925;-83
2022/04/29 06:04:36;;;;;;;;;;;9.00;99.90;;;;;;5014990;28;20474;-84
2022/04/29 06:07:02;;;;;;;;;;;9.30;99.90;;;;;;4999420;28;20303;-84
2022/04/29 06:09:27;;;;;;;;;;;9.60;99.90;;;;;;5003917;28;19917;-84
2022/04/29 06:11:53;;;;;;;;;;;9.90;99.90;;;;;;5009006;28;19987;-84
2022/04/29 06:14:18;;;;;;;;;;;10.20;99.90;;;;;;4998460;28;19917;-83
2022/04/29 06:16:45;;;;;;;;;;;10.60;99.90;;;;;;5013621;28;19939;-84
2022/04/29 06:19:11;;;;;;;;;;;10.90;99.90;;;;;;5009718;28;19925;-83
2022/04/29 06:21:38;;;;;;;;;;;11.20;99.90;;;;;;5023606;28;19921;-84
2022/04/29 06:24:04;;;;;;;;;;;11.40;99.90;;;;;;5022503;28;20299;-83
2022/04/29 06:26:30;;;;;;;;;;;11.70;99.90;;;;;;5057294;28;19916;-83
2022/04/29 06:28:55;;;;;;;;;;;12.00;97.90;;;;;;5013963;28;19963;-83
2022/04/29 06:31:21;;;;;;;;;;;12.30;95.30;;;;;;5020700;28;19962;-84
2022/04/29 06:33:46;;;;;;;;;;;12.60;92.40;;;;;;5022701;28;19920;-84
2022/04/29 06:36:12;;;;;;;;;;;12.80;90.10;;;;;;5001156;28;19924;-84
2022/04/29 06:38:38;;;;;;;;;;;13.00;90.80;;;;;;5024979;28;19917;-84
2022/04/29 06:41:03;;;;;;;;;;;13.00;89.30;;;;;;5037421;28;19913;-84
2022/04/29 06:43:30;;;;;;;;;;;13.20;90.50;;;;;;5018543;28;20268;-86
2022/04/29 06:45:55;;;;;;;;;;;13.30;90.20;;;;;;5035028;28;20363;-86
2022/04/29 06:48:21;;;;;;;;;;;13.40;87.30;;;;;;5006925;28;19960;-84
2022/04/29 06:50:47;;;;;;;;;;;13.30;84.00;;;;;;5018522;28;19936;-84
2022/04/29 06:53:12;;;;;;;;;;;13.30;84.70;;;;;;5030968;28;19917;-84
2022/04/29 06:55:38;;;;;;;;;;;13.20;82.90;;;;;;5039791;23;19925;-86
2022/04/29 06:58:04;;;;;;;;;;;13.20;81.30;;;;;;5031472;28;19910;-86
2022/04/29 07:00:29;;;;;;;;;;;13.20;82.30;;;;;;5013672;28;19979;-86
2022/04/29 07:02:56;;;;;;;;;;;13.20;81.60;;;;;;5028629;28;20392;-86
2022/04/29 07:05:23;;;;;;;;;;;13.20;82.70;;;;;;5051129;28;19923;-86
2022/04/29 07:07:49;;;;;;;;;;;13.20;81.60;;;;;;5017001;28;19921;-86
2022/04/29 07:10:15;;;;;;;;;;;13.20;79.30;;;;;;5002985;28;20038;-86
2022/04/29 07:12:42;;;;;;;;;;;13.20;80.60;;;;;;5009598;28;19913;-86
2022/04/29 07:15:08;;;;;;;;;;;13.30;81.10;;;;;;5022598;28;19920;-86
2022/04/29 07:17:34;;;;;;;;;;;13.20;80.20;;;;;;5022831;28;19914;-86
2022/04/29 07:19:59;;;;;;;;;;;13.30;82.30;;;;;;5031040;28;19979;-86
2022/04/29 07:22:25;;;;;;;;;;;13.30;83.50;;;;;;5030899;28;20016;-86
2022/04/29 07:24:50;;;;;;;;;;;13.40;84.00;;;;;;5013385;28;19991;-86
2022/04/29 07:27:16;;;;;;;;;;;13.50;85.00;;;;;;4997148;28;19913;-86
2022/04/29 07:29:41;;;;;;;;;;;13.60;85.10;;;;;;4996948;28;19917;-86
2022/04/29 07:32:07;;;;;;;;;;;13.70;84.40;;;;;;5040052;28;20383;-86
2022/04/29 07:42:45;;;;;;;;;;;14.30;77.20;;;;;;5038914;28;20201;-86
2022/04/29 07:45:11;;;;;;;;;;;14.30;72.80;;;;;;4996745;28;19917;-86
2022/04/29 07:47:36;;;;;;;;;;;14.50;74.90;;;;;;5030925;28;20383;-86
2022/04/29 07:50:03;;;;;;;;;;;14.70;71.50;;;;;;5017213;28;19913;-86
2022/04/29 07:52:28;;;;;;;;;;;14.90;72.10;;;;;;5050586;28;20361;-86
2022/04/29 07:54:53;;;;;;;;;;;15.10;68.50;;;;;;5016416;28;19927;-86
2022/04/29 07:57:19;;;;;;;;;;;15.40;67.80;;;;;;5032884;28;20359;-86
2022/04/29 07:59:44;;;;;;;;;;;15.60;65.90;;;;;;5016060;28;19913;-86
2022/04/29 08:02:10;;;;;;;;;;;15.60;63.40;;;;;;5032764;28;20010;-86
2022/04/29 08:04:35;;;;;;;;;;;15.70;66.20;;;;;;5016210;28;20008;-86
2022/04/29 08:07:02;;;;;;;;;;;15.90;63.80;;;;;;5050883;28;20365;-86
2022/04/29 08:09:28;;;;;;;;;;;16.00;63.20;;;;;;5032910;28;19913;-85
2022/04/29 08:11:53;;;;;;;;;;;16.20;60.70;;;;;;5016142;28;19924;-86
2022/04/29 08:14:20;;;;;;;;;;;16.40;59.90;;;;;;5032546;28;19952;-86
2022/04/29 08:16:46;;;;;;;;;;;16.60;58.80;;;;;;5016519;28;20381;-86
2022/04/29 08:19:11;;;;;;;;;;;16.70;57.10;;;;;;5016121;28;19917;-86
2022/04/29 08:21:36;;;;;;;;;;;16.60;56.60;;;;;;5050405;28;20372;-86
2022/04/29 08:24:02;;;;;;;;;;;16.80;58.50;;;;;;5030525;28;19921;-86
2022/04/29 08:26:28;;;;;;;;;;;16.70;57.00;;;;;;5016373;28;19963;-86
2022/04/29 08:28:54;;;;;;;;;;;16.80;57.10;;;;;;4999974;28;20437;-86
2022/04/29 08:31:21;;;;;;;;;;;16.70;57.70;;;;;;5000028;28;20364;-86
2022/04/29 08:33:46;;;;;;;;;;;16.90;58.80;;;;;;5001363;28;19913;-86
2022/04/29 08:36:12;;;;;;;;;;;17.00;56.80;;;;;;5005327;28;19920;-86
2022/04/29 08:38:38;;;;;;;;;;;17.10;57.10;;;;;;5001118;28;19914;-86
2022/04/29 08:41:05;;;;;;;;;;;17.20;57.50;;;;;;4980993;28;19918;-86
2022/04/29 08:43:32;;;;;;;;;;;17.30;55.30;;;;;;5015724;28;20048;-86
2022/04/29 08:45:58;;;;;;;;;;;17.40;55.30;;;;;;5016134;28;20015;-86
2022/04/29 08:48:24;;;;;;;;;;;17.50;55.60;;;;;;5032647;28;20003;-86
2022/04/29 08:50:49;;;;;;;;;;;17.60;55.00;;;;;;5015755;28;19923;-86
2022/04/29 08:53:16;;;;;;;;;;;17.70;55.90;;;;;;4999567;28;19913;-86
2022/04/29 08:58:36;;;;;;;;;;;17.90;54.80;;;;;;5033935;28;19917;-86
2022/04/29 09:01:03;;;;;;;;;;;18.00;55.00;;;;;;5015931;28;19921;-86
2022/04/29 09:03:29;;;;;;;;;;;18.20;55.20;;;;;;5033552;28;20326;-86
2022/04/29 09:05:55;;;;;;;;;;;18.30;53.80;;;;;;4999763;28;19913;-86
2022/04/29 09:08:21;;;;;;;;;;;18.20;51.20;;;;;;5033351;28;19909;-86
2022/04/29 09:10:48;;;;;;;;;;;18.10;52.70;;;;;;4999190;28;19917;-86
2022/04/29 09:13:15;;;;;;;;;;;18.10;54.60;;;;;;5033514;28;19913;-86
2022/04/29 09:15:54;;;;;;;;;;;18.20;53.30;;;;;;5016814;28;19924;-86
2022/04/29 09:18:32;;;;;;;;;;;18.30;53.30;;;;;;5053276;28;19939;-86
2022/04/29 09:20:57;;;;;;;;;;;18.40;54.40;;;;;;5035035;28;19912;-86
2022/04/29 09:23:27;;;;;;;;;;;18.50;51.80;;;;;;5035511;28;20003;-86
2022/04/29 09:25:52;;;;;;;;;;;18.50;51.40;;;;;;5035287;28;19917;-86
2022/04/29 09:28:18;;;;;;;;;;;18.40;50.00;;;;;;5035129;28;19913;-85
2022/04/29 09:30:43;;;;;;;;;;;18.40;49.60;;;;;;5018699;28;19923;-86
2022/04/29 09:33:20;;;;;;;;;;;18.20;49.90;;;;;;5017715;28;19917;-86
2022/04/29 09:35:47;;;;;;;;;;;18.10;50.10;;;;;;5028667;28;19909;-86
2022/04/29 09:40:58;;;;;;;;;;;18.20;52.00;;;;;;5037935;28;19923;-86
2022/04/29 09:43:38;;;;;;;;;;;18.30;50.70;;;;;;5018663;28;19913;-86
2022/04/29 09:46:09;;;;;;;;;;;18.50;51.00;;;;;;5034874;28;19912;-86
2022/04/29 09:48:49;;;;;;;;;;;18.70;50.40;;;;;;5034651;28;19913;-86
2022/04/29 09:51:15;;;;;;;;;;;18.90;49.30;;;;;;5052576;28;19951;-86
2022/04/29 09:53:40;;;;;;;;;;;19.10;50.10;;;;;;5018187;28;19964;-86
2022/04/29 09:56:07;;;;;;;;;;;19.20;48.70;;;;;;5033251;28;20024;-86
2022/04/29 09:58:32;;;;;;;;;;;19.30;46.10;;;;;;5051086;28;19920;-86
2022/04/29 10:01:03;;;;;;;;;;;19.50;46.90;;;;;;5051114;28;20270;-86
2022/04/29 10:03:30;;;;;;;;;;;19.60;46.40;;;;;;5018169;28;19912;-87
2022/04/29 10:05:57;;;;;;;;;;;19.60;50.10;;;;;;5051992;28;19919;-86
2022/04/29 10:08:25;;;;;;;;;;;19.70;46.70;;;;;;5034357;28;19944;-86
2022/04/29 10:10:52;;;;;;;;;;;19.70;48.40;;;;;;5050633;28;19908;-86
2022/04/29 10:13:18;;;;;;;;;;;19.80;48.50;;;;;;5017692;28;19913;-86
2022/04/29 10:15:44;;;;;;;;;;;19.80;45.20;;;;;;5017775;28;20011;-86
2022/04/29 10:23:39;;;;;;;;;;;19.70;46.40;;;;;;5052252;28;20319;-86
2022/04/29 10:26:04;;;;;;;;;;;19.70;48.20;;;;;;5017736;28;19913;-86
2022/04/29 10:28:31;;;;;;;;;;;19.70;47.60;;;;;;5051735;28;19939;-86
2022/04/29 10:31:05;;;;;;;;;;;19.70;46.60;;;;;;5017503;28;19988;-86
2022/04/29 10:33:30;;;;;;;;;;;19.70;44.60;;;;;;5033901;28;19959;-87
2022/04/29 10:36:04;;;;;;;;;;;19.70;47.00;;;;;;5033607;28;19943;-86
2022/04/29 10:38:40;;;;;;;;;;;19.80;47.20;;;;;;5033849;28;19912;-86
2022/04/29 10:41:19;;;;;;;;;;;19.90;46.20;;;;;;5034605;28;19917;-86
2022/04/29 10:43:49;;;;;;;;;;;20.00;48.50;;;;;;5033779;28;19917;-86
2022/04/29 10:46:15;;;;;;;;;;;20.20;47.20;;;;;;5050454;28;20281;-86
2022/04/29 10:48:41;;;;;;;;;;;20.30;46.60;;;;;;5033734;28;19920;-86
2022/04/29 10:51:10;;;;;;;;;;;20.30;49.50;;;;;;5016953;28;20288;-86
2022/04/29 10:53:37;;;;;;;;;;;20.30;48.90;;;;;;5033400;28;19908;-86
2022/04/29 10:56:21;;;;;;;;;;;20.50;47.10;;;;;;5051062;28;19943;-86
2022/04/29 10:58:47;;;;;;;;;;;20.90;44.50;;;;;;5051242;28;19996;-86
2022/04/29 11:01:27;;;;;;;;;;;21.20;43.60;;;;;;5016754;28;20008;-86
2022/04/29 11:03:53;;;;;;;;;;;21.20;41.50;;;;;;5050970;28;19909;-86
2022/04/29 11:06:19;;;;;;;;;;;21.00;42.10;;;;;;5033234;28;20400;-87
2022/04/29 11:08:45;;;;;;;;;;;20.70;44.20;;;;;;5034667;28;19920;-86
2022/04/29 11:11:11;;;;;;;;;;;20.20;41.80;;;;;;5033372;28;19924;-86
2022/04/29 11:13:42;;;;;;;;;;;20.00;44.70;;;;;;5033191;28;20297;-86
2022/04/29 11:16:15;;;;;;;;;;;20.00;46.00;;;;;;5032970;28;19973;-86
2022/04/29 11:18:42;;;;;;;;;;;20.20;45.40;;;;;;5033280;28;20002;-86
2022/04/29 11:26:46;;;;;;;;;;;20.10;44.30;;;;;;5051369;28;19932;-86
2022/04/29 11:29:12;;;;;;;;;;;20.40;43.00;;;;;;5021810;28;19913;-86
2022/04/29 11:31:38;;;;;;;;;;;20.80;43.00;;;;;;5013178;28;20365;-86
2022/04/29 11:34:04;;;;;;;;;;;21.20;41.30;;;;;;5013240;28;19910;-86
2022/04/29 11:36:30;;;;;;;;;;;21.40;41.90;;;;;;4996694;28;19970;-86
2022/04/29 11:38:55;;;;;;;;;;;21.60;40.50;;;;;;4996642;28;20012;-86
2022/04/29 11:41:22;;;;;;;;;;;21.60;41.30;;;;;;4996932;28;20407;-86
2022/04/29 11:43:48;;;;;;;;;;;21.80;38.70;;;;;;4996841;28;19937;-86
2022/04/29 11:46:14;;;;;;;;;;;21.90;37.90;;;;;;5013604;28;19913;-86
2022/04/29 11:48:49;;;;;;;;;;;21.90;37.50;;;;;;5013054;28;20397;-86
2022/04/29 11:51:15;;;;;;;;;;;21.90;36.90;;;;;;5013246;28;19913;-86
2022/04/29 11:54:00;;;;;;;;;;;21.80;35.50;;;;;;5013079;28;19920;-86
2022/04/29 11:56:39;;;;;;;;;;;21.70;33.80;;;;;;4996576;28;19928;-86
2022/04/29 11:59:09;;;;;;;;;;;21.40;33.60;;;;;;5016812;28;19909;-86
2022/04/29 12:01:35;;;;;;;;;;;21.30;36.50;;;;;;5000498;28;20006;-86
2022/04/29 12:04:02;;;;;;;;;;;21.30;39.50;;;;;;5016578;28;19913;-86
2022/04/29 12:06:28;;;;;;;;;;;21.30;38.80;;;;;;5016842;28;20309;-86
2022/04/29 12:08:54;;;;;;;;;;;21.30;37.10;;;;;;5016162;28;19917;-86
2022/04/29 12:11:27;;;;;;;;;;;21.50;37.30;;;;;;5016430;28;19913;-86
2022/04/29 12:13:52;;;;;;;;;;;21.70;37.20;;;;;;5016624;28;19916;-86
2022/04/29 12:16:18;;;;;;;;;;;22.00;36.60;;;;;;5016619;28;19913;-86
2022/04/29 12:18:44;;;;;;;;;;;22.30;34.80;;;;;;5000363;28;19963;-87
2022/04/29 12:21:11;;;;;;;;;;;22.40;35.80;;;;;;5016476;28;19917;-86
2022/04/29 12:23:36;;;;;;;;;;;22.30;32.70;;;;;;5016364;28;19963;-86
2022/04/29 12:26:04;;;;;;;;;;;22.50;33.40;;;;;;5015889;28;21342;-87
2022/04/29 12:28:31;;;;;;;;;;;22.70;32.70;;;;;;5005133;28;19917;-87
2022/04/29 12:36:45;;;;;;;;;;;22.40;38.60;;;;;;5035877;28;19936;-86
2022/04/29 12:39:11;;;;;;;;;;;22.20;34.80;;;;;;5034579;28;19913;-86
2022/04/29 12:41:36;;;;;;;;;;;22.30;33.90;;;;;;5016433;28;19917;-86
2022/04/29 12:45:03;;;;;;;;;;;22.20;36.60;;;;;;5016863;28;20262;-87
2022/04/29 12:46:59;;;;;;;;;;;22.10;37.60;;;;;;5019091;28;20382;-86
2022/04/29 12:49:24;;;;;;;;;;;22.00;34.50;;;;;;5032466;28;20000;-86
2022/04/29 12:52:00;;;;;;;;;;;21.80;34.10;;;;;;5000017;28;20281;-86
2022/04/29 12:54:26;;;;;;;;;;;21.50;36.70;;;;;;5000116;28;20427;-86
2022/04/29 12:56:52;;;;;;;;;;;21.30;37.20;;;;;;5009834;23;19929;-84
2022/04/29 12:59:22;;;;;;;;;;;21.30;39.20;;;;;;4995207;28;19909;-85
2022/04/29 13:01:47;;;;;;;;;;;21.30;41.50;;;;;;5016739;28;19968;-86
2022/04/29 13:04:13;;;;;;;;;;;21.30;40.40;;;;;;5018506;28;20321;-85
2022/04/29 13:06:38;;;;;;;;;;;21.30;42.50;;;;;;5026438;28;19920;-85
2022/04/29 13:09:04;;;;;;;;;;;21.10;36.80;;;;;;5012607;28;20349;-85
2022/04/29 13:11:32;;;;;;;;;;;20.80;37.00;;;;;;5031919;28;19913;-85
2022/04/29 13:13:58;;;;;;;;;;;20.50;38.50;;;;;;4998817;28;19953;-84
2022/04/29 13:16:24;;;;;;;;;;;20.20;39.40;;;;;;5014814;28;20426;-84
2022/04/29 13:18:50;;;;;;;;;;;20.00;39.10;;;;;;5014256;28;19921;-84
2022/04/29 13:21:16;;;;;;;;;;;19.90;41.70;;;;;;5014447;28;20385;-84
2022/04/29 13:23:42;;;;;;;;;;;19.80;39.20;;;;;;5014569;28;19914;-85
2022/04/29 13:26:08;;;;;;;;;;;19.70;42.40;;;;;;5032168;28;19951;-84
2022/04/29 13:28:34;;;;;;;;;;;19.50;42.50;;;;;;4997683;28;20250;-84
2022/04/29 13:31:00;;;;;;;;;;;19.50;44.00;;;;;;5014448;28;19939;-85
2022/04/29 13:33:26;;;;;;;;;;;19.80;41.50;;;;;;4998133;28;19920;-84
2022/04/29 13:35:51;;;;;;;;;;;20.00;38.70;;;;;;5014381;28;20434;-84
2022/04/29 13:38:17;;;;;;;;;;;20.20;39.70;;;;;;5030638;28;19909;-85
2022/04/29 13:40:44;;;;;;;;;;;20.40;38.20;;;;;;5030806;28;19920;-84
2022/04/29 13:43:12;;;;;;;;;;;20.60;39.20;;;;;;5014669;28;19924;-85
2022/04/29 13:45:38;;;;;;;;;;;20.60;39.00;;;;;;4997974;28;19939;-84
2022/04/29 13:48:04;;;;;;;;;;;20.30;38.40;;;;;;5014358;28;20420;-85
2022/04/29 13:50:30;;;;;;;;;;;20.20;38.90;;;;;;5030624;28;19936;-85
2022/04/29 13:53:14;;;;;;;;;;;19.90;39.00;;;;;;5014156;28;19921;-84
2022/04/29 13:55:41;;;;;;;;;;;19.70;39.20;;;;;;5031884;28;19925;-85
2022/04/29 13:58:07;;;;;;;;;;;19.60;40.70;;;;;;5031595;28;20031;-84
2022/04/29 14:00:33;;;;;;;;;;;19.50;40.30;;;;;;5014008;28;20004;-84
2022/04/29 14:02:59;;;;;;;;;;;19.50;42.50;;;;;;5013974;28;19915;-84
2022/04/29 14:05:27;;;;;;;;;;;19.70;44.30;;;;;;4997573;28;19917;-84
2022/04/29 14:07:52;;;;;;;;;;;19.80;40.80;;;;;;5014294;28;20378;-85
2022/04/29 14:10:19;;;;;;;;;;;20.00;42.20;;;;;;4996828;28;19920;-84
2022/04/29 14:12:44;;;;;;;;;;;20.20;40.60;;;;;;5031705;28;19932;-84
2022/04/29 14:15:10;;;;;;;;;;;20.30;38.60;;;;;;5014031;28;20382;-84
2022/04/29 14:17:36;;;;;;;;;;;20.40;39.60;;;;;;5014120;28;19916;-84
2022/04/29 14:20:02;;;;;;;;;;;20.40;40.80;;;;;;5013063;28;19909;-84
2022/04/29 14:22:27;;;;;;;;;;;20.40;39.90;;;;;;5013440;28;20325;-84
2022/04/29 14:24:53;;;;;;;;;;;20.60;39.90;;;;;;4997173;28;19920;-84
2022/04/29 14:27:21;;;;;;;;;;;20.60;40.80;;;;;;5015857;28;19941;-85
2022/04/29 14:29:48;;;;;;;;;;;20.60;39.30;;;;;;5016268;28;19917;-84
2022/04/29 14:32:14;;;;;;;;;;;20.40;37.50;;;;;;5016940;28;20346;-85
2022/04/29 14:34:40;;;;;;;;;;;20.30;38.80;;;;;;5016811;28;20039;-85
2022/04/29 14:37:06;;;;;;;;;;;20.40;41.10;;;;;;5016660;28;19909;-84
2022/04/29 14:39:32;;;;;;;;;;;20.10;38.10;;;;;;5016441;28;19916;-85
2022/04/29 14:41:57;;;;;;;;;;;20.20;38.00;;;;;;5034212;28;19917;-84
2022/04/29 14:44:24;;;;;;;;;;;20.20;40.10;;;;;;5035401;28;19916;-85
2022/04/29 14:46:50;;;;;;;;;;;20.30;38.20;;;;;;5034809;28;19917;-85
2022/04/29 14:49:16;;;;;;;;;;;20.40;38.60;;;;;;4999964;28;19967;-85
2022/04/29 14:51:42;;;;;;;;;;;20.40;40.70;;;;;;5017382;28;20296;-85
2022/04/29 14:54:08;;;;;;;;;;;20.40;40.00;;;;;;5003971;28;19940;-85
2022/04/29 14:56:34;;;;;;;;;;;20.20;38.80;;;;;;5017394;28;19921;-84